Wetterdaten: Woche 24.07.17 - 30.07.17 (KW30)
Datum Zeit Temp. A. Feuchte A. Luftdruck Regen Wind Richtung Taupunkt Windchill Windben
24.07.2017 00:00 22,1 C 74 % 1013,5 hPa 0,3 l/m 0,6 km/h N 17,2 C 22,1 C 5,2 km/h
24.07.2017 01:00 20,4 C 80 % 1012,8 hPa 0,5 l/m 0,3 km/h N 16,7 C 20,4 C 4,4 km/h
24.07.2017 02:00 19,7 C 81 % 1012,1 hPa 0,0 l/m 0,2 km/h N 16,3 C 19,7 C 3,6 km/h
24.07.2017 03:00 19,6 C 81 % 1011,8 hPa 0,0 l/m 0,6 km/h N 16,2 C 19,6 C 7,2 km/h
24.07.2017 04:00 19,7 C 80 % 1011,4 hPa 0,0 l/m 0,2 km/h N 16,1 C 19,7 C 4,8 km/h
24.07.2017 05:00 19,6 C 79 % 1011,2 hPa 0,0 l/m 1,6 km/h N 15,9 C 19,6 C 8,0 km/h
24.07.2017 06:00 19,4 C 80 % 1011,2 hPa 0,5 l/m 1,3 km/h N 15,9 C 19,4 C 6,8 km/h
24.07.2017 07:00 18,8 C 81 % 1010,6 hPa 1,0 l/m 0,0 km/h N 15,5 C 18,8 C 0,4 km/h
24.07.2017 08:00 18,9 C 81 % 1010,1 hPa 0,0 l/m 0,0 km/h N 15,5 C 18,9 C 0,0 km/h
24.07.2017 09:00 20,0 C 81 % 1009,2 hPa 0,0 l/m 0,0 km/h N 16,6 C 20,0 C 0,8 km/h
24.07.2017 10:00 21,7 C 80 % 1008,2 hPa 0,0 l/m 0,0 km/h N 18,0 C 21,7 C 2,0 km/h
24.07.2017 11:00 23,1 C 74 % 1007,3 hPa 0,0 l/m 0,6 km/h N 18,1 C 23,1 C 6,8 km/h
24.07.2017 12:00 23,4 C 70 % 1006,2 hPa 0,0 l/m 0,4 km/h N 17,4 C 23,4 C 7,6 km/h
24.07.2017 13:00 22,1 C 73 % 1005,6 hPa 0,5 l/m 0,1 km/h N 17,1 C 22,1 C 3,2 km/h
24.07.2017 14:00 20,0 C 80 % 1004,7 hPa 1,3 l/m 0,3 km/h N 16,5 C 20,0 C 5,2 km/h
24.07.2017 15:00 20,0 C 81 % 1003,3 hPa 0,8 l/m 0,2 km/h N 16,7 C 20,0 C 3,6 km/h
24.07.2017 16:00 20,7 C 81 % 1002,9 hPa 1,6 l/m 0,1 km/h N 17,3 C 20,7 C 2,4 km/h
24.07.2017 17:00 19,8 C 81 % 1003,3 hPa 1,0 l/m 9,1 km/h N 16,3 C 18,5 C 25,3 km/h
24.07.2017 18:00 20,0 C 79 % 1003,8 hPa 1,0 l/m 9,2 km/h N 16,2 C 18,9 C 22,5 km/h
24.07.2017 19:00 20,3 C 78 % 1004,0 hPa 0,5 l/m 5,8 km/h N 16,3 C 20,2 C 21,7 km/h
24.07.2017 20:00 19,2 C 76 % 1003,9 hPa 0,5 l/m 10,8 km/h N 14,9 C 17,6 C 29,8 km/h
24.07.2017 21:00 18,5 C 76 % 1004,0 hPa 0,3 l/m 9,6 km/h N 14,1 C 17,2 C 32,2 km/h
24.07.2017 22:00 17,6 C 73 % 1003,7 hPa 0,3 l/m 15,9 km/h N 12,7 C 14,1 C 41,0 km/h
24.07.2017 23:00 17,3 C 73 % 1004,4 hPa 0,3 l/m 13,1 km/h N 12,4 C 14,5 C 38,6 km/h
25.07.2017 00:00 17,1 C 73 % 1004,8 hPa 0,3 l/m 16,8 km/h N 12,1 C 13,2 C 37,8 km/h
25.07.2017 01:00 16,6 C 76 % 1004,7 hPa 0,3 l/m 13,3 km/h N 12,3 C 13,7 C 39,0 km/h
25.07.2017 02:00 16,8 C 74 % 1004,6 hPa 0,3 l/m 11,3 km/h N 12,2 C 14,6 C 34,6 km/h
25.07.2017 03:00 16,6 C 74 % 1004,4 hPa 0,0 l/m 13,3 km/h N 11,8 C 13,7 C 37,8 km/h
25.07.2017 04:00 16,3 C 73 % 1004,0 hPa 0,0 l/m 13,1 km/h N 11,5 C 13,4 C 33,8 km/h
25.07.2017 05:00 15,8 C 74 % 1004,1 hPa 0,3 l/m 10,8 km/h N 11,1 C 13,7 C 32,6 km/h
25.07.2017 06:00 15,5 C 72 % 1004,6 hPa 0,3 l/m 12,6 km/h N 10,5 C 12,7 C 33,0 km/h
25.07.2017 07:00 15,8 C 71 % 1004,9 hPa 0,0 l/m 10,2 km/h N 10,5 C 13,9 C 32,2 km/h
25.07.2017 08:00 16,7 C 69 % 1004,7 hPa 0,0 l/m 13,4 km/h N 10,9 C 13,8 C 33,4 km/h
25.07.2017 09:00 17,5 C 66 % 1004,6 hPa 0,0 l/m 10,9 km/h N 11,2 C 15,6 C 35,0 km/h
25.07.2017 10:00 18,4 C 63 % 1004,9 hPa 0,3 l/m 13,5 km/h N 11,2 C 15,7 C 33,0 km/h
25.07.2017 11:00 19,3 C 59 % 1005,1 hPa 0,0 l/m 11,9 km/h N 11,1 C 17,2 C 32,2 km/h
25.07.2017 12:00 19,5 C 58 % 1005,0 hPa 0,0 l/m 11,3 km/h N 11,0 C 17,8 C 33,4 km/h
25.07.2017 13:00 19,7 C 61 % 1005,4 hPa 0,0 l/m 7,9 km/h N 11,9 C 18,8 C 26,1 km/h
25.07.2017 14:00 20,0 C 58 % 1005,2 hPa 0,0 l/m 11,0 km/h N 11,4 C 18,3 C 33,4 km/h
25.07.2017 15:00 20,0 C 57 % 1005,0 hPa 0,0 l/m 9,6 km/h N 11,3 C 18,9 C 29,4 km/h
25.07.2017 16:00 20,5 C 55 % 1004,4 hPa 0,0 l/m 9,7 km/h N 11,1 C 19,3 C 27,8 km/h
25.07.2017 17:00 20,5 C 54 % 1004,3 hPa 0,0 l/m 11,9 km/h N 11,0 C 18,7 C 34,6 km/h
25.07.2017 18:00 20,6 C 54 % 1004,4 hPa 0,0 l/m 10,6 km/h N 11,0 C 19,1 C 30,2 km/h
25.07.2017 19:00 20,1 C 57 % 1004,7 hPa 0,0 l/m 7,5 km/h N 11,3 C 19,6 C 25,7 km/h
25.07.2017 20:00 19,1 C 58 % 1004,2 hPa 0,0 l/m 6,7 km/h N 10,5 C 18,4 C 21,3 km/h
25.07.2017 21:00 18,0 C 62 % 1004,4 hPa 0,0 l/m 3,2 km/h N 10,6 C 18,0 C 17,7 km/h
25.07.2017 22:00 17,3 C 65 % 1004,9 hPa 0,0 l/m 5,4 km/h N 10,6 C 17,2 C 21,7 km/h
25.07.2017 23:00 16,5 C 65 % 1005,3 hPa 0,0 l/m 5,8 km/h N 9,8 C 16,3 C 20,9 km/h
26.07.2017 00:00 16,1 C 67 % 1005,4 hPa 0,0 l/m 2,4 km/h N 9,9 C 16,1 C 16,9 km/h
26.07.2017 01:00 16,1 C 65 % 1005,0 hPa 0,0 l/m 2,7 km/h N 9,5 C 16,1 C 15,3 km/h
26.07.2017 02:00 15,8 C 66 % 1004,7 hPa 0,0 l/m 2,0 km/h N 9,5 C 15,8 C 15,3 km/h
26.07.2017 03:00 15,2 C 69 % 1004,4 hPa 0,0 l/m 0,0 km/h N 9,4 C 15,2 C 1,6 km/h
26.07.2017 04:00 13,8 C 73 % 1004,4 hPa 0,0 l/m 0,0 km/h N 9,1 C 13,8 C 0,8 km/h
26.07.2017 05:00 12,9 C 77 % 1004,3 hPa 0,0 l/m 0,0 km/h N 8,8 C 12,9 C 0,0 km/h
26.07.2017 06:00 12,6 C 80 % 1004,3 hPa 0,0 l/m 0,0 km/h N 9,3 C 12,6 C 0,4 km/h
26.07.2017 07:00 13,8 C 81 % 1004,3 hPa 0,0 l/m 0,0 km/h N 10,6 C 13,8 C 0,4 km/h
26.07.2017 08:00 15,0 C 78 % 1003,9 hPa 0,0 l/m 0,1 km/h N 11,2 C 15,0 C 3,2 km/h
26.07.2017 09:00 16,5 C 76 % 1004,0 hPa 0,3 l/m 0,1 km/h N 12,2 C 16,5 C 2,8 km/h
26.07.2017 10:00 17,4 C 76 % 1003,9 hPa 0,3 l/m 0,4 km/h N 13,1 C 17,4 C 4,8 km/h
26.07.2017 11:00 17,8 C 74 % 1003,8 hPa 0,0 l/m 0,2 km/h N 13,1 C 17,8 C 2,4 km/h
26.07.2017 12:00 18,7 C 71 % 1003,7 hPa 0,0 l/m 0,3 km/h N 13,4 C 18,7 C 4,8 km/h
26.07.2017 13:00 20,8 C 62 % 1003,6 hPa 0,0 l/m 1,6 km/h N 13,2 C 20,8 C 12,9 km/h
26.07.2017 14:00 19,6 C 63 % 1004,0 hPa 0,0 l/m 3,5 km/h N 12,5 C 19,6 C 22,5 km/h
26.07.2017 15:00 19,6 C 62 % 1003,7 hPa 0,0 l/m 4,9 km/h N 12,0 C 19,4 C 28,1 km/h
26.07.2017 16:00 19,6 C 62 % 1003,2 hPa 0,0 l/m 8,4 km/h N 12,0 C 18,8 C 29,0 km/h
26.07.2017 17:00 18,5 C 65 % 1003,2 hPa 0,0 l/m 10,8 km/h N 11,8 C 16,8 C 34,2 km/h
26.07.2017 18:00 18,0 C 68 % 1003,9 hPa 0,0 l/m 10,6 km/h N 12,1 C 16,3 C 30,6 km/h
26.07.2017 19:00 17,6 C 72 % 1004,3 hPa 0,0 l/m 6,8 km/h N 12,5 C 17,2 C 24,9 km/h
26.07.2017 20:00 17,3 C 75 % 1004,5 hPa 0,0 l/m 7,8 km/h N 12,8 C 16,6 C 25,8 km/h
26.07.2017 21:00 17,2 C 76 % 1005,2 hPa 0,0 l/m 10,3 km/h N 12,9 C 15,5 C 27,4 km/h
26.07.2017 22:00 17,3 C 76 % 1005,6 hPa 0,0 l/m 8,9 km/h N 13,0 C 16,1 C 27,8 km/h
26.07.2017 23:00 16,5 C 79 % 1005,8 hPa 0,3 l/m 8,4 km/h N 12,8 C 15,5 C 32,2 km/h
27.07.2017 00:00 15,5 C 81 % 1006,8 hPa 0,3 l/m 8,8 km/h N 12,2 C 14,3 C 23,3 km/h
27.07.2017 01:00 15,2 C 81 % 1006,8 hPa 0,3 l/m 10,8 km/h N 11,9 C 13,0 C 26,5 km/h
27.07.2017 02:00 15,0 C 81 % 1006,9 hPa 0,3 l/m 10,3 km/h N 11,7 C 13,0 C 27,4 km/h
27.07.2017 03:00 14,8 C 82 % 1007,0 hPa 0,3 l/m 11,7 km/h N 11,7 C 12,2 C 29,0 km/h
27.07.2017 04:00 14,8 C 82 % 1007,1 hPa 0,0 l/m 12,3 km/h N 11,7 C 11,9 C 32,6 km/h
27.07.2017 05:00 14,8 C 82 % 1007,4 hPa 0,3 l/m 11,3 km/h N 11,7 C 12,4 C 28,2 km/h
27.07.2017 06:00 14,9 C 81 % 1007,9 hPa 0,3 l/m 10,2 km/h N 11,6 C 12,9 C 27,0 km/h
27.07.2017 07:00 14,9 C 81 % 1008,4 hPa 0,0 l/m 8,6 km/h N 11,8 C 13,8 C 22,9 km/h
27.07.2017 08:00 15,2 C 81 % 1008,9 hPa 0,5 l/m 5,9 km/h N 12,0 C 14,9 C 19,7 km/h
27.07.2017 09:00 15,4 C 81 % 1009,3 hPa 0,0 l/m 6,6 km/h N 12,3 C 15,1 C 20,1 km/h
27.07.2017 10:00 16,0 C 82 % 1009,5 hPa 0,0 l/m 7,4 km/h N 12,8 C 15,5 C 21,7 km/h
27.07.2017 11:00 16,4 C 81 % 1009,8 hPa 0,0 l/m 8,9 km/h N 13,2 C 15,2 C 25,0 km/h
27.07.2017 12:00 16,8 C 81 % 1009,9 hPa 0,0 l/m 7,5 km/h N 13,5 C 16,0 C 21,7 km/h
27.07.2017 13:00 17,2 C 79 % 1009,8 hPa 0,3 l/m 6,4 km/h N 13,5 C 16,7 C 20,9 km/h
27.07.2017 14:00 18,0 C 78 % 1009,5 hPa 0,0 l/m 4,1 km/h N 14,2 C 18,0 C 15,3 km/h
27.07.2017 15:00 19,4 C 76 % 1009,4 hPa 0,0 l/m 5,2 km/h N 14,9 C 19,4 C 13,7 km/h
27.07.2017 16:00 20,1 C 74 % 1009,1 hPa 0,3 l/m 1,9 km/h N 15,3 C 20,1 C 12,1 km/h
27.07.2017 17:00 19,8 C 76 % 1009,3 hPa 0,0 l/m 1,2 km/h N 15,4 C 19,8 C 8,0 km/h
27.07.2017 18:00 18,8 C 80 % 1009,3 hPa 0,0 l/m 0,1 km/h N 15,2 C 18,8 C 4,4 km/h
27.07.2017 19:00 19,1 C 77 % 1009,0 hPa 0,0 l/m 4,3 km/h N 14,9 C 18,8 C 14,1 km/h
27.07.2017 20:00 19,5 C 70 % 1009,2 hPa 0,0 l/m 5,1 km/h N 13,8 C 19,2 C 18,5 km/h
27.07.2017 21:00 19,1 C 72 % 1009,8 hPa 0,0 l/m 1,8 km/h N 13,9 C 19,1 C 14,1 km/h
27.07.2017 22:00 18,7 C 74 % 1009,9 hPa 0,0 l/m 1,3 km/h N 14,0 C 18,7 C 9,3 km/h
27.07.2017 23:00 18,6 C 74 % 1010,1 hPa 0,0 l/m 2,5 km/h N 13,9 C 18,6 C 12,1 km/h
28.07.2017 00:00 18,7 C 75 % 1009,9 hPa 0,0 l/m 2,2 km/h N 14,1 C 18,7 C 11,7 km/h
28.07.2017 01:00 18,6 C 76 % 1010,0 hPa 0,0 l/m 0,9 km/h N 14,3 C 18,6 C 6,8 km/h
28.07.2017 02:00 18,4 C 76 % 1009,9 hPa 0,0 l/m 0,2 km/h N 14,1 C 18,4 C 2,8 km/h
28.07.2017 03:00 18,5 C 76 % 1009,8 hPa 0,0 l/m 1,3 km/h N 14,1 C 18,5 C 9,3 km/h
28.07.2017 04:00 18,8 C 75 % 1009,8 hPa 0,0 l/m 0,5 km/h N 14,3 C 18,8 C 4,4 km/h
28.07.2017 05:00 18,1 C 77 % 1010,1 hPa 1,8 l/m 0,0 km/h N 14,0 C 18,1 C 0,0 km/h
28.07.2017 06:00 17,6 C 80 % 1010,0 hPa 0,0 l/m 0,1 km/h N 14,1 C 17,6 C 2,0 km/h
28.07.2017 07:00 18,5 C 80 % 1010,4 hPa 0,0 l/m 0,8 km/h N 14,9 C 18,5 C 8,1 km/h
28.07.2017 08:00 20,5 C 71 % 1010,5 hPa 0,0 l/m 4,4 km/h N 15,1 C 20,5 C 17,7 km/h
28.07.2017 09:00 21,7 C 68 % 1010,3 hPa 0,3 l/m 6,7 km/h N 15,6 C 21,5 C 24,9 km/h
28.07.2017 10:00 22,8 C 63 % 1010,3 hPa 0,0 l/m 13,1 km/h N 15,4 C 21,1 C 31,4 km/h
28.07.2017 11:00 23,2 C 61 % 1010,3 hPa 0,0 l/m 12,1 km/h N 15,3 C 21,7 C 30,2 km/h
28.07.2017 12:00 23,9 C 58 % 1010,6 hPa 0,0 l/m 13,6 km/h N 15,0 C 22,2 C 32,6 km/h
28.07.2017 13:00 24,5 C 57 % 1011,0 hPa 0,0 l/m 10,0 km/h N 15,3 C 23,7 C 31,8 km/h
28.07.2017 14:00 24,8 C 53 % 1010,7 hPa 0,0 l/m 8,9 km/h N 14,4 C 24,2 C 30,6 km/h
28.07.2017 15:00 25,6 C 50 % 1010,7 hPa 0,0 l/m 12,9 km/h N 14,2 C 24,3 C 39,5 km/h
28.07.2017 16:00 25,3 C 51 % 1011,2 hPa 0,0 l/m 11,3 km/h N 14,4 C 24,2 C 39,4 km/h
28.07.2017 17:00 24,5 C 53 % 1011,8 hPa 0,0 l/m 8,9 km/h N 14,2 C 23,8 C 37,0 km/h
28.07.2017 18:00 23,6 C 56 % 1012,3 hPa 0,0 l/m 4,8 km/h N 14,3 C 23,6 C 23,3 km/h
28.07.2017 19:00 22,4 C 58 % 1012,8 hPa 0,0 l/m 7,2 km/h N 13,7 C 22,2 C 24,1 km/h
28.07.2017 20:00 21,5 C 60 % 1013,5 hPa 0,0 l/m 6,4 km/h N 13,3 C 21,6 C 28,2 km/h
28.07.2017 21:00 20,9 C 60 % 1014,1 hPa 0,0 l/m 4,0 km/h N 12,8 C 20,9 C 22,5 km/h
28.07.2017 22:00 20,7 C 61 % 1014,7 hPa 0,0 l/m 9,7 km/h N 12,7 C 19,5 C 26,5 km/h
28.07.2017 23:00 20,1 C 64 % 1015,3 hPa 0,0 l/m 8,1 km/h N 13,0 C 19,5 C 22,5 km/h
29.07.2017 00:00 19,8 C 67 % 1015,9 hPa 0,0 l/m 4,0 km/h N 13,3 C 19,8 C 18,5 km/h
29.07.2017 01:00 19,0 C 69 % 1016,2 hPa 0,0 l/m 1,6 km/h N 13,1 C 19,0 C 9,7 km/h
29.07.2017 02:00 18,4 C 72 % 1016,3 hPa 0,0 l/m 1,6 km/h N 13,1 C 18,4 C 11,3 km/h
29.07.2017 03:00 17,5 C 73 % 1016,5 hPa 0,0 l/m 0,8 km/h N 12,6 C 17,5 C 4,0 km/h
29.07.2017 04:00 15,8 C 76 % 1016,7 hPa 0,0 l/m 0,0 km/h N 11,6 C 15,8 C 0,0 km/h
29.07.2017 05:00 14,9 C 79 % 1017,0 hPa 0,0 l/m 0,0 km/h N 11,2 C 14,9 C 0,0 km/h
29.07.2017 06:00 15,0 C 81 % 1017,3 hPa 0,0 l/m 0,0 km/h N 11,8 C 15,0 C 0,8 km/h
29.07.2017 07:00 16,1 C 81 % 1017,5 hPa 0,0 l/m 0,0 km/h N 12,9 C 16,1 C 2,4 km/h
29.07.2017 08:00 18,6 C 78 % 1017,6 hPa 0,0 l/m 0,0 km/h N 14,6 C 18,6 C 1,6 km/h
29.07.2017 09:00 23,0 C 64 % 1017,5 hPa 0,0 l/m 0,0 km/h N 15,8 C 23,0 C 1,6 km/h
29.07.2017 10:00 25,1 C 52 % 1017,5 hPa 0,0 l/m 0,0 km/h N 14,5 C 25,1 C 6,4 km/h
29.07.2017 11:00 26,4 C 48 % 1017,4 hPa 0,0 l/m 0,0 km/h N 14,3 C 26,4 C 5,6 km/h
29.07.2017 12:00 26,8 C 47 % 1016,8 hPa 0,0 l/m 1,6 km/h N 14,3 C 26,8 C 8,9 km/h
29.07.2017 13:00 28,1 C 45 % 1016,4 hPa 0,0 l/m 0,0 km/h N 14,8 C 28,1 C 7,2 km/h
29.07.2017 14:00 28,8 C 45 % 1015,8 hPa 0,0 l/m 0,0 km/h N 15,4 C 28,8 C 6,4 km/h
29.07.2017 15:00 28,7 C 43 % 1015,5 hPa 0,0 l/m 0,0 km/h N 14,7 C 28,7 C 6,4 km/h
29.07.2017 16:00 27,8 C 45 % 1015,3 hPa 0,0 l/m 1,6 km/h N 14,5 C 27,8 C 7,2 km/h
29.07.2017 17:00 28,0 C 49 % 1015,0 hPa 0,0 l/m 0,0 km/h N 16,1 C 28,0 C 7,2 km/h
29.07.2017 18:00 28,0 C 49 % 1014,8 hPa 0,0 l/m 0,0 km/h N 16,1 C 28,0 C 7,3 km/h
29.07.2017 19:00 28,2 C 50 % 1014,6 hPa 0,0 l/m 0,0 km/h N 16,6 C 28,2 C 4,8 km/h
29.07.2017 20:00 26,2 C 57 % 1014,4 hPa 0,0 l/m 0,0 km/h N 17,0 C 26,2 C 0,8 km/h
29.07.2017 21:00 23,9 C 65 % 1014,5 hPa 0,0 l/m 0,0 km/h N 16,9 C 23,9 C 0,0 km/h
29.07.2017 22:00 21,7 C 72 % 1014,4 hPa 0,0 l/m 0,0 km/h N 16,3 C 21,7 C 0,0 km/h
29.07.2017 23:00 20,0 C 77 % 1014,3 hPa 0,0 l/m 0,0 km/h N 15,8 C 20,0 C 0,8 km/h
30.07.2017 00:00 19,0 C 79 % 1014,3 hPa 0,0 l/m 0,0 km/h N 15,3 C 19,0 C 0,0 km/h
30.07.2017 01:00 18,4 C 81 % 1014,3 hPa 0,0 l/m 0,0 km/h N 15,0 C 18,4 C 0,8 km/h
30.07.2017 02:00 18,0 C 81 % 1014,0 hPa 0,0 l/m 0,0 km/h N 14,6 C 18,0 C 1,6 km/h
30.07.2017 03:00 17,4 C 81 % 1014,0 hPa 0,0 l/m 0,0 km/h N 14,1 C 17,4 C 0,8 km/h
30.07.2017 04:00 16,6 C 81 % 1013,8 hPa 0,0 l/m 0,0 km/h N 13,3 C 16,6 C 0,0 km/h
30.07.2017 05:00 16,2 C 81 % 1013,8 hPa 0,0 l/m 0,0 km/h N 12,9 C 16,2 C 0,0 km/h
30.07.2017 06:00 15,9 C 82 % 1013,6 hPa 0,0 l/m 0,0 km/h N 12,8 C 15,9 C 0,0 km/h
30.07.2017 07:00 16,9 C 82 % 1013,5 hPa 0,0 l/m 0,0 km/h N 13,8 C 16,9 C 0,0 km/h
30.07.2017 08:00 18,8 C 82 % 1013,3 hPa 0,0 l/m 0,0 km/h N 15,6 C 18,8 C 2,4 km/h
30.07.2017 09:00 22,9 C 77 % 1013,2 hPa 0,0 l/m 0,0 km/h N 18,6 C 22,9 C 6,4 km/h
30.07.2017 10:00 26,8 C 64 % 1012,8 hPa 0,0 l/m 0,0 km/h N 19,2 C 26,8 C 5,6 km/h
30.07.2017 11:00 29,3 C 58 % 1012,3 hPa 0,0 l/m 0,8 km/h N 20,0 C 29,3 C 7,2 km/h
30.07.2017 12:00 31,7 C 53 % 1011,9 hPa 0,0 l/m 1,6 km/h N 20,7 C 31,7 C 8,1 km/h
30.07.2017 13:00 32,5 C 52 % 1011,5 hPa 0,0 l/m 1,6 km/h N 21,3 C 32,5 C 10,5 km/h
30.07.2017 14:00 33,3 C 47 % 1011,1 hPa 0,0 l/m 1,6 km/h N 20,2 C 33,3 C 11,3 km/h
30.07.2017 15:00 32,8 C 47 % 1010,8 hPa 0,0 l/m 0,8 km/h N 19,8 C 32,8 C 7,2 km/h
30.07.2017 16:00 31,8 C 51 % 1011,0 hPa 0,0 l/m 0,0 km/h N 20,2 C 31,8 C 7,2 km/h
30.07.2017 17:00 30,4 C 58 % 1010,8 hPa 0,0 l/m 0,0 km/h N 21,0 C 30,4 C 2,4 km/h
30.07.2017 18:00 28,9 C 63 % 1011,1 hPa 0,0 l/m 0,0 km/h N 21,1 C 28,9 C 5,6 km/h
30.07.2017 19:00 28,1 C 66 % 1011,2 hPa 0,0 l/m 0,0 km/h N 21,1 C 28,1 C 1,6 km/h
30.07.2017 20:00 26,8 C 69 % 1011,5 hPa 0,0 l/m 0,0 km/h N 20,5 C 26,8 C 4,0 km/h
30.07.2017 21:00 24,4 C 70 % 1012,2 hPa 0,0 l/m 0,7 km/h N 18,5 C 24,4 C 8,4 km/h
30.07.2017 22:00 23,1 C 72 % 1012,6 hPa 0,0 l/m 0,0 km/h N 17,8 C 23,1 C 1,2 km/h
30.07.2017 23:00 22,6 C 71 % 1013,1 hPa 0,0 l/m 0,6 km/h N 17,2 C 22,6 C 6,0 km/h
Min-Datum _ 26.07.17 29.07.17 24.07.17 - 24.07.17 - 26.07.17 27.07.17 24.07.17
_ Min-Zeit 06:15 15:00 15:45 - 00:30 - 05:45 03:30 00:30
Minimum _ 12,4 C 42 % 1002,8 hPa - 0,0 km/h - 8,7 C 11,2 C 0,0 km/h
Max-Datum _ 30.07.17 27.07.17 29.07.17 28.07.17 24.07.17 - 30.07.17 30.07.17 24.07.17
_ Max-Zeit 14:00 03:15 07:30 05:15 22:45 - 13:30 14:00 22:15
Maximum _ 33,4 C 82 % 1017,6 hPa 1,8 l/m 18,7 km/h
N
- 21,4 C 33,4 C 45,1 km/h
N
Durchschnitt _ 20,1 C 70 % 1009,3 hPa #17,4 l/m 4,4 km/h N 14,1 C 19,5 C 15,3 km/h